Hyalite Weather Station

This weather station provides temperature, wind speed, gust or max wind speed, and wind direction at 9982ft near the summit of Flanders Mountain. This data can be used with temperature and precipitation data from the Shower Falls SNOTEL site. If the data has not been updated recently you can view it directly on datagarrison.com

Elevation
9982ft
Jump to table bottom
Date Time Temperature
deg F
RH, % Wind Speed Wind Gust Wind Direction
01/29/23 14:00 -17.0 80 4 7 N - 357
01/29/23 13:00 -14.6 80 3 7 NW - 331
01/29/23 12:00 -19.9 79 4 7 N - 11
01/29/23 11:00 -24.3 78 6 12 NE - 29
01/29/23 10:00 -25.3 78 6 10 NE - 34
01/29/23 09:00 -23.4 79 5 10 NE - 46
01/29/23 08:00 -23.8 79 0 0 NE - 38
01/29/23 07:00 -25.2 79 0 0 N - 7
01/29/23 06:00 -24.1 79 0 0 NE - 25
01/29/23 05:00 -23.5 79 0 0 NE - 32
01/29/23 04:00 -20.3 80 0 0 E - 70
01/29/23 03:00 -19.5 80 0 0 E - 86
01/29/23 02:00 -19.1 80 0 0 E - 69
01/29/23 01:00 -17.9 80 0 0 NE - 58
01/29/23 00:00 -17.3 80 0 0 E - 70
01/28/23 23:00 -17.4 80 0 0 NE - 62
01/28/23 22:00 -18.2 80 0 0 N - 338
01/28/23 21:00 -19.1 80 0 0 NW - 298
01/28/23 20:00 -18.2 80 0 0 W - 265
01/28/23 19:00 -15.4 81 0 0 N - 344
01/28/23 18:00 -14.3 81 0 0 NE - 52
01/28/23 17:00 -14.6 81 0 0 SW - 243
01/28/23 16:00 -9.0 82 0 0 W - 253
01/28/23 15:00 -5.9 82 0 0 SW - 247
01/28/23 14:00 -5.1 82 0 0 SW - 240
01/28/23 13:00 -6.3 82 0 0 SW - 240
01/28/23 12:00 -2.1 83 0 0 SW - 209
01/28/23 11:00 -3.0 82 0 0 S - 202
01/28/23 10:00 -5.7 82 0 0 E - 111
01/28/23 09:00 -7.9 82 0 5 NE - 59
01/28/23 08:00 -7.4 82 4 10 E - 83
01/28/23 07:00 -5.4 82 5 15 E - 83
01/28/23 06:00 -2.1 83 2 9 E - 84
01/28/23 05:00 2.2 83 0 0 SW - 204
01/28/23 04:00 5.9 83 0 0 SW - 213
01/28/23 03:00 7.1 83 0 0 SW - 213
01/28/23 02:00 7.4 83 0 0 SW - 213
01/28/23 01:00 7.8 83 0 0 SW - 213
01/28/23 00:00 8.0 83 0 0 SW - 213
01/27/23 23:00 7.8 83 0 0 SW - 213
01/27/23 22:00 7.9 83 0 2 SW - 233
01/27/23 21:00 9.5 83 3 6 NW - 316
01/27/23 20:00 9.9 83 3 6 NW - 321
01/27/23 19:00 10.2 83 4 7 N - 352
01/27/23 18:00 10.8 83 5 12 N - 350
01/27/23 17:00 13.4 83 7 13 W - 288
01/27/23 16:00 13.6 84 8 18 W - 289
01/27/23 15:00 14.6 83 10 17 W - 279
01/27/23 14:00 14.9 84 10 21 W - 279
01/27/23 13:00 15.3 83 11 21 W - 278